Time,TemperatureF,DewpointF,PressureIn,WindDirection,WindDirectionDegrees,WindSpeedMPH,WindSpeedGustMPH,Humidity,HourlyPrecipIn,Conditions,Clouds,dailyrainin,SoftwareType,DateUTC
2013-01-25 00:03:00,57.8,53.9,29.81,West,270,0.0,0.0,87,0.03,RA,OVC,0.00,WUHU216HW,2013-01-25 08:03:00,
2013-01-25 00:08:00,57.8,53.9,29.81,SE,135,0.4,0.7,87,0.03,RA,OVC,0.00,WUHU216HW,2013-01-25 08:08:00,
2013-01-25 00:13:00,57.6,53.7,29.80,ESE,113,1.8,2.2,87,0.03,RA,OVC,0.00,WUHU216HW,2013-01-25 08:13:00,
2013-01-25 00:18:00,58.0,54.1,29.80,ESE,113,2.7,3.4,87,0.03,RA,OVC,0.00,WUHU216HW,2013-01-25 08:18:00,
2013-01-25 00:23:00,58.9,54.0,29.80,East,90,3.1,4.9,84,0.03,RA,OVC,0.00,WUHU216HW,2013-01-25 08:23:00,
2013-01-25 00:28:00,59.8,54.3,29.80,East,90,2.2,5.1,82,0.03,RA,OVC,0.00,WUHU216HW,2013-01-25 08:28:00,
2013-01-25 00:33:00,60.3,54.2,29.80,East,90,1.8,5.1,80,0.03,RA,OVC,0.00,WUHU216HW,2013-01-25 08:33:00,
2013-01-25 00:38:00,60.8,53.6,29.79,ENE,68,3.8,5.1,77,0.03,RA,OVC,0.00,WUHU216HW,2013-01-25 08:38:00,
2013-01-25 00:43:00,62.1,53.4,29.79,East,90,3.8,6.7,73,0.00,RA,OVC,0.00,WUHU216HW,2013-01-25 08:43:00,
2013-01-25 00:48:00,63.0,53.8,29.79,ENE,68,4.9,7.8,72,0.00,RA,OVC,0.00,WUHU216HW,2013-01-25 08:48:00,
2013-01-25 00:53:00,63.2,53.6,29.79,East,90,7.6,10.3,71,0.00,RA,OVC,0.00,WUHU216HW,2013-01-25 08:53:00,
2013-01-25 00:58:00,63.7,53.8,29.78,ENE,68,9.4,10.5,70,0.00,RA,OVC,0.00,WUHU216HW,2013-01-25 08:58:00,
2013-01-25 01:03:00,63.7,53.8,29.78,East,90,6.9,10.5,70,0.00,RA,OVC,0.00,WUHU216HW,2013-01-25 09:03:00,
2013-01-25 01:08:00,63.7,54.2,29.78,East,90,4.0,9.6,71,0.00,RA,OVC,0.00,WUHU216HW,2013-01-25 09:08:00,
2013-01-25 01:13:00,63.4,53.8,29.79,NE,45,6.3,10.3,71,0.00,RA,OVC,0.00,WUHU216HW,2013-01-25 09:13:00,
2013-01-25 01:18:00,63.5,53.6,29.78,ENE,68,6.7,10.3,70,0.00,RA,OVC,0.00,WUHU216HW,2013-01-25 09:18:00,
2013-01-25 01:23:00,63.5,53.6,29.78,NE,45,5.6,7.4,70,0.00,RA,OVC,0.00,WUHU216HW,2013-01-25 09:23:00,
2013-01-25 01:28:00,63.5,53.6,29.79,ENE,68,9.6,9.6,70,0.00,RA,OVC,0.00,WUHU216HW,2013-01-25 09:28:00,
2013-01-25 01:33:00,63.5,53.6,29.78,ENE,68,4.3,9.6,70,0.00,RA,OVC,0.00,WUHU216HW,2013-01-25 09:33:00,
2013-01-25 01:38:00,63.7,53.8,29.79,NE,45,4.0,9.6,70,0.00,RA,OVC,0.00,WUHU216HW,2013-01-25 09:38:00,
2013-01-25 01:43:00,63.7,53.8,29.78,East,90,10.1,10.1,70,0.00,RA,OVC,0.00,WUHU216HW,2013-01-25 09:43:00,
2013-01-25 01:48:00,63.5,53.6,29.78,ESE,113,5.8,10.1,70,0.00,RA,OVC,0.00,WUHU216HW,2013-01-25 09:48:00,
2013-01-25 01:53:00,63.5,53.6,29.78,East,90,3.8,9.2,70,0.00,RA,OVC,0.00,WUHU216HW,2013-01-25 09:53:00,
2013-01-25 01:58:00,63.7,53.8,29.78,ENE,68,6.5,7.6,70,0.00,RA,OVC,0.00,WUHU216HW,2013-01-25 09:58:00,
2013-01-25 02:03:00,63.5,53.6,29.78,NE,45,2.7,7.6,70,0.00,RA,OVC,0.00,WUHU216HW,2013-01-25 10:03:00,
2013-01-25 02:08:00,63.7,53.8,29.78,NNE,23,2.9,7.8,70,0.00,RA,OVC,0.00,WUHU216HW,2013-01-25 10:08:00,
2013-01-25 02:13:00,63.5,53.6,29.78,SE,135,6.0,8.5,70,0.00,RA,OVC,0.00,WUHU216HW,2013-01-25 10:13:00,
2013-01-25 02:18:00,63.5,53.6,29.78,ESE,113,4.0,8.5,70,0.00,RA,OVC,0.00,WUHU216HW,2013-01-25 10:18:00,
2013-01-25 02:23:00,63.4,53.5,29.78,ESE,113,4.0,6.9,70,0.00,RA,OVC,0.00,WUHU216HW,2013-01-25 10:23:00,
2013-01-25 02:28:00,63.2,53.6,29.78,ENE,68,2.9,6.9,71,0.00,RA,OVC,0.00,WUHU216HW,2013-01-25 10:28:00,
2013-01-25 02:33:00,63.2,53.3,29.77,NE,45,3.4,5.1,70,0.00,RA,OVC,0.00,WUHU216HW,2013-01-25 10:33:00,
2013-01-25 02:38:00,63.5,53.2,29.77,ENE,68,4.9,6.3,69,0.00,RA,OVC,0.00,WUHU216HW,2013-01-25 10:38:00,
2013-01-25 02:43:00,63.7,53.4,29.77,NNE,23,5.4,7.2,69,0.00,,,0.00,WUHU216HW,2013-01-25 10:43:00,
2013-01-25 02:48:00,63.7,53.0,29.77,ENE,68,4.5,7.2,68,0.00,,,0.00,WUHU216HW,2013-01-25 10:48:00,
2013-01-25 02:53:00,63.9,53.2,29.76,ENE,68,3.1,7.2,68,0.00,,,0.00,WUHU216HW,2013-01-25 10:53:00,
2013-01-25 02:58:00,63.9,53.2,29.76,North,0,3.6,8.7,68,0.00,,,0.00,WUHU216HW,2013-01-25 10:58:00,
2013-01-25 03:03:00,63.7,53.4,29.76,NE,45,6.3,12.3,69,0.00,,,0.00,WUHU216HW,2013-01-25 11:03:00,
2013-01-25 03:08:00,63.4,53.5,29.76,East,90,4.5,12.3,70,0.00,,,0.00,WUHU216HW,2013-01-25 11:08:00,
2013-01-25 03:13:00,63.4,53.5,29.76,North,0,3.1,6.7,70,0.00,,,0.00,WUHU216HW,2013-01-25 11:13:00,
2013-01-25 03:18:00,63.2,53.6,29.75,ESE,113,3.8,8.5,71,0.00,,,0.00,WUHU216HW,2013-01-25 11:18:00,
2013-01-25 03:23:00,63.2,53.3,29.75,ESE,113,5.4,8.5,70,0.00,,,0.00,WUHU216HW,2013-01-25 11:23:00,
2013-01-25 03:28:00,63.4,53.5,29.75,ENE,68,2.2,7.4,70,0.00,,,0.00,WUHU216HW,2013-01-25 11:28:00,
2013-01-25 03:33:00,63.2,53.3,29.75,SE,135,4.7,8.9,70,0.00,,,0.00,WUHU216HW,2013-01-25 11:33:00,
2013-01-25 03:38:00,63.2,53.3,29.75,NE,45,2.7,8.9,70,0.00,,,0.00,WUHU216HW,2013-01-25 11:38:00,
2013-01-25 03:43:00,63.4,53.5,29.75,ENE,68,2.9,4.9,70,0.00,,,0.00,WUHU216HW,2013-01-25 11:43:00,
2013-01-25 03:48:00,63.5,53.6,29.74,NE,45,1.6,4.9,70,0.00,,,0.00,WUHU216HW,2013-01-25 11:48:00,
2013-01-25 03:53:00,63.5,53.6,29.74,ENE,68,0.7,3.8,70,0.00,,,0.00,WUHU216HW,2013-01-25 11:53:00,
2013-01-25 03:58:00,63.4,53.5,29.74,North,0,0.4,3.6,70,0.00,,,0.00,WUHU216HW,2013-01-25 11:58:00,
2013-01-25 04:03:00,63.0,53.1,29.74,SW,225,0.4,2.7,70,0.00,,,0.00,WUHU216HW,2013-01-25 12:03:00,
2013-01-25 04:08:00,62.8,53.3,29.74,WSW,248,0.4,1.6,71,0.00,,,0.00,WUHU216HW,2013-01-25 12:08:00,
2013-01-25 04:13:00,62.5,53.3,29.74,WSW,248,0.4,2.5,72,0.00,,,0.00,WUHU216HW,2013-01-25 12:13:00,
2013-01-25 04:18:00,61.9,52.8,29.74,South,180,0.4,2.5,72,0.00,,,0.00,WUHU216HW,2013-01-25 12:18:00,
2013-01-25 04:23:00,61.7,52.7,29.75,SE,135,1.3,3.1,72,0.00,,,0.00,WUHU216HW,2013-01-25 12:23:00,
2013-01-25 04:28:00,61.4,52.7,29.74,SSW,203,1.1,3.1,73,0.00,,,0.00,WUHU216HW,2013-01-25 12:28:00,
2013-01-25 04:33:00,61.2,52.6,29.74,SE,135,2.2,2.2,73,0.00,,,0.00,WUHU216HW,2013-01-25 12:33:00,
2013-01-25 04:38:00,60.8,52.2,29.74,SE,135,1.1,2.2,73,0.00,,,0.00,WUHU216HW,2013-01-25 12:38:00,
2013-01-25 04:43:00,60.8,52.6,29.74,SSE,158,0.9,3.1,74,0.00,,,0.00,WUHU216HW,2013-01-25 12:43:00,
2013-01-25 04:48:00,60.5,52.6,29.74,SE,135,1.1,3.1,75,0.00,,,0.00,WUHU216HW,2013-01-25 12:48:00,
2013-01-25 04:53:00,60.3,52.4,29.73,SE,135,0.2,2.2,75,0.00,,,0.00,WUHU216HW,2013-01-25 12:53:00,
2013-01-25 04:58:00,59.9,52.4,29.73,North,0,0.0,1.1,76,0.00,,,0.00,WUHU216HW,2013-01-25 12:58:00,
2013-01-25 05:03:00,59.8,52.2,29.73,NNW,338,0.0,1.1,76,0.00,,,0.00,WUHU216HW,2013-01-25 13:03:00,
2013-01-25 05:08:00,59.4,52.2,29.73,NNW,338,0.0,1.1,77,0.00,,,0.00,WUHU216HW,2013-01-25 13:08:00,
2013-01-25 05:13:00,59.4,52.6,29.73,ENE,68,0.7,1.6,78,0.00,,,0.00,WUHU216HW,2013-01-25 13:13:00,
2013-01-25 05:18:00,59.6,52.7,29.73,East,90,3.6,3.6,78,0.00,,,0.00,WUHU216HW,2013-01-25 13:18:00,
2013-01-25 05:23:00,60.3,52.7,29.73,ESE,113,2.5,3.6,76,0.00,,,0.00,WUHU216HW,2013-01-25 13:23:00,
2013-01-25 05:28:00,60.7,52.7,29.73,East,90,3.1,4.0,75,0.00,,,0.00,WUHU216HW,2013-01-25 13:28:00,
2013-01-25 05:33:00,60.8,52.6,29.73,ESE,113,4.0,4.0,74,0.00,,,0.00,WUHU216HW,2013-01-25 13:33:00,
2013-01-25 05:38:00,61.0,52.4,29.73,ESE,113,2.5,4.7,73,0.00,,,0.00,WUHU216HW,2013-01-25 13:38:00,
2013-01-25 05:43:00,61.2,52.2,29.73,East,90,2.7,4.7,72,0.00,,,0.00,WUHU216HW,2013-01-25 13:43:00,
2013-01-25 05:48:00,61.4,51.9,29.73,East,90,1.8,4.0,71,0.00,,,0.00,WUHU216HW,2013-01-25 13:48:00,
2013-01-25 05:53:00,61.6,52.1,29.73,East,90,1.3,4.0,71,0.00,,,0.00,WUHU216HW,2013-01-25 13:53:00,
2013-01-25 05:58:00,61.6,52.1,29.74,SE,135,1.6,4.0,71,0.00,,,0.00,WUHU216HW,2013-01-25 13:58:00,
2013-01-25 06:03:00,61.6,51.8,29.74,ESE,113,2.2,4.0,70,0.00,,,0.00,WUHU216HW,2013-01-25 14:03:00,
2013-01-25 06:08:00,61.6,51.8,29.74,East,90,1.3,3.1,70,0.00,,,0.00,WUHU216HW,2013-01-25 14:08:00,
2013-01-25 06:13:00,61.6,51.8,29.74,ESE,113,1.6,3.4,70,0.00,,,0.00,WUHU216HW,2013-01-25 14:13:00,
2013-01-25 06:18:00,61.7,51.5,29.75,ENE,68,2.5,3.4,69,0.00,,,0.00,WUHU216HW,2013-01-25 14:18:00,
2013-01-25 06:23:00,62.1,52.3,29.75,East,90,2.2,4.0,70,0.00,,,0.00,WUHU216HW,2013-01-25 14:23:00,
2013-01-25 06:28:00,62.1,51.8,29.75,East,90,1.6,4.0,69,0.00,,,0.00,WUHU216HW,2013-01-25 14:28:00,
2013-01-25 06:33:00,62.1,51.8,29.75,ESE,113,2.2,3.8,69,0.00,,,0.00,WUHU216HW,2013-01-25 14:33:00,
2013-01-25 06:38:00,62.1,52.3,29.75,East,90,3.4,3.6,70,0.00,,,0.00,WUHU216HW,2013-01-25 14:38:00,
2013-01-25 06:43:00,61.9,51.7,29.75,East,90,1.1,3.4,69,0.00,,,0.00,WUHU216HW,2013-01-25 14:43:00,
2013-01-25 06:48:00,61.9,51.7,29.75,East,90,1.1,3.4,69,0.00,,,0.00,WUHU216HW,2013-01-25 14:48:00,
2013-01-25 06:53:00,61.9,51.7,29.75,ESE,113,1.1,2.2,69,0.00,,,0.00,WUHU216HW,2013-01-25 14:53:00,
2013-01-25 06:58:00,61.7,51.5,29.75,ESE,113,1.6,1.8,69,0.00,,,0.00,WUHU216HW,2013-01-25 14:58:00,
2013-01-25 07:03:00,61.6,51.4,29.74,SE,135,0.0,1.6,69,0.00,,,0.00,WUHU216HW,2013-01-25 15:03:00,
2013-01-25 07:08:00,61.4,51.2,29.75,ESE,113,1.1,1.6,69,0.00,,,0.00,WUHU216HW,2013-01-25 15:08:00,
2013-01-25 07:13:00,61.2,51.0,29.75,ESE,113,0.0,1.1,69,0.00,,,0.00,WUHU216HW,2013-01-25 15:13:00,
2013-01-25 07:18:00,61.2,51.0,29.75,ESE,113,0.0,1.1,69,0.00,,,0.00,WUHU216HW,2013-01-25 15:18:00,
2013-01-25 07:23:00,60.8,51.1,29.75,North,0,0.0,0.9,70,0.00,,,0.00,WUHU216HW,2013-01-25 15:23:00,
2013-01-25 07:28:00,60.7,51.3,29.75,North,0,0.4,0.7,71,0.00,,,0.00,WUHU216HW,2013-01-25 15:28:00,
2013-01-25 07:33:00,60.5,51.5,29.75,NNW,338,0.0,0.7,72,0.00,,,0.00,WUHU216HW,2013-01-25 15:33:00,
2013-01-25 07:38:00,60.3,51.7,29.75,North,0,0.0,0.7,73,0.00,,,0.00,WUHU216HW,2013-01-25 15:38:00,
2013-01-25 07:43:00,60.1,51.5,29.75,North,0,0.0,0.0,73,0.00,,,0.00,WUHU216HW,2013-01-25 15:43:00,
2013-01-25 07:48:00,60.1,51.8,29.75,North,0,0.0,0.0,74,0.00,,,0.00,WUHU216HW,2013-01-25 15:48:00,
2013-01-25 07:53:00,60.1,52.6,29.75,NNE,23,0.0,0.4,76,0.00,,,0.00,WUHU216HW,2013-01-25 15:53:00,
2013-01-25 07:58:00,59.9,52.0,29.76,NNE,23,0.0,0.4,75,0.00,,,0.00,WUHU216HW,2013-01-25 15:58:00,
2013-01-25 08:03:00,59.8,52.2,29.76,NNE,23,0.9,0.9,76,0.00,,,0.00,WUHU216HW,2013-01-25 16:03:00,
2013-01-25 08:08:00,59.8,52.2,29.75,NNE,23,0.0,0.9,76,0.00,,,0.00,WUHU216HW,2013-01-25 16:08:00,
2013-01-25 08:13:00,59.8,52.6,29.75,NNE,23,0.0,0.9,77,0.00,,,0.00,WUHU216HW,2013-01-25 16:13:00,
2013-01-25 08:18:00,59.8,52.6,29.76,WNW,293,0.9,0.9,77,0.00,,,0.00,WUHU216HW,2013-01-25 16:18:00,
2013-01-25 08:23:00,59.9,53.1,29.76,NNW,338,0.4,0.9,78,0.00,,,0.00,WUHU216HW,2013-01-25 16:23:00,
2013-01-25 08:28:00,59.9,53.1,29.76,NNW,338,0.2,0.9,78,0.00,,,0.00,WUHU216HW,2013-01-25 16:28:00,
2013-01-25 08:33:00,59.9,53.5,29.76,NW,315,0.4,1.1,79,0.00,,,0.00,WUHU216HW,2013-01-25 16:33:00,
2013-01-25 08:38:00,60.1,53.3,29.77,NW,315,0.4,1.1,78,0.00,,,0.00,WUHU216HW,2013-01-25 16:38:00,
2013-01-25 08:43:00,60.1,53.3,29.77,WSW,248,0.9,0.9,78,0.00,,,0.00,WUHU216HW,2013-01-25 16:43:00,
2013-01-25 08:48:00,60.3,53.1,29.77,West,270,0.7,0.9,77,0.00,,,0.00,WUHU216HW,2013-01-25 16:48:00,
2013-01-25 08:53:00,60.5,53.3,29.78,NW,315,0.9,1.6,77,0.00,,,0.00,WUHU216HW,2013-01-25 16:53:00,
2013-01-25 08:58:00,60.5,53.6,29.78,WSW,248,0.0,1.6,78,0.00,,,0.00,WUHU216HW,2013-01-25 16:58:00,
2013-01-25 09:03:00,60.3,53.5,29.78,NNE,23,0.0,1.1,78,0.00,,,0.00,WUHU216HW,2013-01-25 17:03:00,
2013-01-25 09:08:00,60.1,53.3,29.78,NNE,23,0.4,1.1,78,0.00,,,0.00,WUHU216HW,2013-01-25 17:08:00,
2013-01-25 09:13:00,60.1,53.6,29.79,SW,225,1.1,2.5,79,0.01,,,0.01,WUHU216HW,2013-01-25 17:13:00,
2013-01-25 09:18:00,59.9,53.5,29.79,NW,315,0.0,2.5,79,0.02,,,0.02,WUHU216HW,2013-01-25 17:18:00,
2013-01-25 09:23:00,59.8,54.0,29.78,NW,315,0.0,1.3,81,0.03,,,0.03,WUHU216HW,2013-01-25 17:23:00,
2013-01-25 09:28:00,59.4,53.9,29.78,NNE,23,1.3,1.6,82,0.03,,,0.03,WUHU216HW,2013-01-25 17:28:00,
2013-01-25 09:33:00,59.4,54.9,29.79,NE,45,0.4,2.0,85,0.03,,,0.03,WUHU216HW,2013-01-25 17:33:00,
2013-01-25 09:38:00,59.2,54.1,29.79,ESE,113,1.1,2.0,83,0.03,,,0.03,WUHU216HW,2013-01-25 17:38:00,
2013-01-25 09:43:00,59.2,54.1,29.79,East,90,2.0,3.6,83,0.05,,,0.05,WUHU216HW,2013-01-25 17:43:00,
2013-01-25 09:48:00,59.4,54.3,29.79,NE,45,2.9,3.6,83,0.05,,,0.05,WUHU216HW,2013-01-25 17:48:00,
2013-01-25 09:53:00,59.6,53.8,29.79,NNW,338,2.7,6.3,81,0.05,,,0.05,WUHU216HW,2013-01-25 17:53:00,
2013-01-25 09:58:00,59.8,53.3,29.79,ENE,68,2.7,6.3,79,0.06,,,0.06,WUHU216HW,2013-01-25 17:58:00,
2013-01-25 10:03:00,59.8,53.3,29.79,ESE,113,5.8,6.9,79,0.06,,,0.06,WUHU216HW,2013-01-25 18:03:00,
2013-01-25 10:08:00,59.8,53.6,29.79,East,90,2.5,6.9,80,0.06,,,0.06,WUHU216HW,2013-01-25 18:08:00,
2013-01-25 10:13:00,59.8,52.9,29.79,ENE,68,3.4,6.7,78,0.04,,,0.06,WUHU216HW,2013-01-25 18:13:00,
2013-01-25 10:18:00,60.3,52.4,29.79,NE,45,5.6,6.9,75,0.03,,,0.06,WUHU216HW,2013-01-25 18:18:00,
2013-01-25 10:23:00,60.7,53.1,29.80,ENE,68,3.8,6.9,76,0.03,,,0.06,WUHU216HW,2013-01-25 18:23:00,
2013-01-25 10:28:00,60.7,53.1,29.80,East,90,4.7,6.9,76,0.03,,,0.06,WUHU216HW,2013-01-25 18:28:00,
2013-01-25 10:33:00,60.8,52.9,29.79,East,90,3.6,6.9,75,0.03,,,0.06,WUHU216HW,2013-01-25 18:33:00,
2013-01-25 10:38:00,60.8,53.3,29.80,SE,135,2.9,5.4,76,0.01,,,0.06,WUHU216HW,2013-01-25 18:38:00,
2013-01-25 10:43:00,60.7,53.1,29.80,SE,135,1.3,4.7,76,0.01,,,0.06,WUHU216HW,2013-01-25 18:43:00,
2013-01-25 10:48:00,60.5,53.3,29.81,SW,225,2.5,2.9,77,0.02,,,0.07,WUHU216HW,2013-01-25 18:48:00,
2013-01-25 10:53:00,60.1,53.6,29.81,South,180,1.1,2.9,79,0.02,,,0.07,WUHU216HW,2013-01-25 18:53:00,
2013-01-25 10:58:00,59.8,53.3,29.81,SE,135,1.3,3.1,79,0.02,,,0.08,WUHU216HW,2013-01-25 18:58:00,
2013-01-25 11:03:00,59.6,53.5,29.81,SE,135,0.0,3.1,80,0.03,,,0.09,WUHU216HW,2013-01-25 19:03:00,
2013-01-25 11:08:00,59.4,53.9,29.81,SE,135,6.0,7.4,82,0.03,,,0.09,WUHU216HW,2013-01-25 19:08:00,
2013-01-25 11:13:00,59.0,54.2,29.80,NE,45,1.1,7.4,84,0.03,,,0.09,WUHU216HW,2013-01-25 19:13:00,
2013-01-25 11:18:00,59.0,54.2,29.80,North,0,1.3,6.0,84,0.04,,,0.10,WUHU216HW,2013-01-25 19:18:00,
2013-01-25 11:23:00,58.9,54.4,29.80,NE,45,1.1,1.8,85,0.04,,,0.10,WUHU216HW,2013-01-25 19:23:00,
2013-01-25 11:28:00,58.9,55.0,29.79,NE,45,0.4,2.9,87,0.04,,,0.10,WUHU216HW,2013-01-25 19:28:00,
2013-01-25 11:33:00,58.9,55.6,29.79,ENE,68,1.6,5.4,89,0.04,,,0.10,WUHU216HW,2013-01-25 19:33:00,
2013-01-25 11:38:00,58.9,55.6,29.79,ESE,113,2.2,5.4,89,0.04,,,0.10,WUHU216HW,2013-01-25 19:38:00,
2013-01-25 11:43:00,59.0,56.2,29.78,East,90,4.3,4.5,90,0.04,,,0.10,WUHU216HW,2013-01-25 19:43:00,
2013-01-25 11:48:00,58.9,55.6,29.78,ENE,68,6.5,6.5,89,0.03,,,0.10,WUHU216HW,2013-01-25 19:48:00,
2013-01-25 11:53:00,58.9,55.6,29.77,ENE,68,3.8,6.9,89,0.03,,,0.10,WUHU216HW,2013-01-25 19:53:00,
2013-01-25 11:58:00,58.7,55.8,29.77,East,90,4.0,7.4,90,0.02,,,0.10,WUHU216HW,2013-01-25 19:58:00,
2013-01-25 12:03:00,58.7,55.8,29.76,NE,45,2.9,7.4,90,0.02,,,0.11,WUHU216HW,2013-01-25 20:03:00,
2013-01-25 12:08:00,58.7,55.8,29.76,ENE,68,4.3,6.5,90,0.02,,,0.11,WUHU216HW,2013-01-25 20:08:00,
2013-01-25 12:13:00,58.9,56.0,29.75,NE,45,2.9,6.5,90,0.01,,,0.11,WUHU216HW,2013-01-25 20:13:00,
2013-01-25 12:18:00,58.9,56.0,29.75,East,90,4.9,7.4,90,0.01,,,0.11,WUHU216HW,2013-01-25 20:18:00,
2013-01-25 12:23:00,58.7,55.8,29.75,ENE,68,7.2,8.5,90,0.01,,,0.11,WUHU216HW,2013-01-25 20:23:00,
2013-01-25 12:28:00,58.7,55.4,29.74,NE,45,6.9,8.5,89,0.01,,,0.11,WUHU216HW,2013-01-25 20:28:00,
2013-01-25 12:33:00,58.9,55.6,29.73,NE,45,3.4,8.5,89,0.01,,,0.11,WUHU216HW,2013-01-25 20:33:00,
2013-01-25 12:38:00,58.9,55.0,29.73,NE,45,10.7,10.7,87,0.01,,,0.11,WUHU216HW,2013-01-25 20:38:00,
2013-01-25 12:43:00,59.0,55.2,29.73,ENE,68,4.9,10.7,87,0.01,,,0.11,WUHU216HW,2013-01-25 20:43:00,
2013-01-25 12:48:00,59.2,55.4,29.72,ENE,68,4.7,10.7,87,0.01,,,0.11,WUHU216HW,2013-01-25 20:48:00,
2013-01-25 12:53:00,59.6,55.7,29.71,ENE,68,5.4,8.7,87,0.01,,,0.11,WUHU216HW,2013-01-25 20:53:00,
2013-01-25 12:58:00,59.8,55.6,29.71,ENE,68,10.7,10.7,86,0.00,,,0.11,WUHU216HW,2013-01-25 20:58:00,
2013-01-25 13:03:00,60.1,55.6,29.71,NE,45,8.5,11.0,85,0.00,,,0.11,WUHU216HW,2013-01-25 21:03:00,
2013-01-25 13:08:00,60.3,55.8,29.71,ENE,68,5.1,11.0,85,0.00,,,0.11,WUHU216HW,2013-01-25 21:08:00,
2013-01-25 13:13:00,60.5,56.0,29.71,NE,45,2.0,8.5,85,0.00,,,0.11,WUHU216HW,2013-01-25 21:13:00,
2013-01-25 13:18:00,60.5,56.0,29.70,NE,45,2.5,7.4,85,0.00,,,0.11,WUHU216HW,2013-01-25 21:18:00,
2013-01-25 13:23:00,60.7,55.5,29.71,ENE,68,3.8,7.6,83,0.00,,,0.11,WUHU216HW,2013-01-25 21:23:00,
2013-01-25 13:28:00,60.7,55.5,29.71,NE,45,4.0,8.5,83,0.00,,,0.11,WUHU216HW,2013-01-25 21:28:00,
2013-01-25 13:33:00,60.8,56.0,29.70,ENE,68,8.3,8.5,84,0.00,,,0.11,WUHU216HW,2013-01-25 21:33:00,
2013-01-25 13:38:00,61.0,55.9,29.70,NE,45,3.6,8.3,83,0.00,,,0.11,WUHU216HW,2013-01-25 21:38:00,
2013-01-25 13:43:00,61.6,55.7,29.69,East,90,2.9,9.8,81,0.00,,,0.11,WUHU216HW,2013-01-25 21:43:00,
2013-01-25 13:48:00,61.6,55.7,29.69,NE,45,4.7,9.8,81,0.00,,,0.11,WUHU216HW,2013-01-25 21:48:00,
2013-01-25 13:53:00,61.7,55.2,29.69,ENE,68,4.7,6.7,79,0.00,,,0.11,WUHU216HW,2013-01-25 21:53:00,
2013-01-25 13:58:00,61.9,55.4,29.69,ENE,68,6.0,7.6,79,0.00,,,0.11,WUHU216HW,2013-01-25 21:58:00,
2013-01-25 14:03:00,62.1,55.5,29.69,ESE,113,6.9,8.3,79,0.00,,,0.11,WUHU216HW,2013-01-25 22:03:00,
2013-01-25 14:08:00,62.3,55.3,29.69,ENE,68,6.3,8.3,78,0.00,,,0.11,WUHU216HW,2013-01-25 22:08:00,
2013-01-25 14:13:00,62.6,55.6,29.69,ENE,68,4.7,6.9,78,0.00,,,0.11,WUHU216HW,2013-01-25 22:13:00,
2013-01-25 14:18:00,62.6,55.3,29.69,ENE,68,5.1,8.5,77,0.00,,,0.11,WUHU216HW,2013-01-25 22:18:00,
2013-01-25 14:23:00,62.6,55.3,29.70,ESE,113,6.9,8.5,77,0.00,,,0.11,WUHU216HW,2013-01-25 22:23:00,
2013-01-25 14:28:00,62.5,55.1,29.69,ENE,68,5.1,10.3,77,0.00,,,0.11,WUHU216HW,2013-01-25 22:28:00,
2013-01-25 14:33:00,62.5,55.1,29.69,East,90,7.6,10.3,77,0.00,,,0.11,WUHU216HW,2013-01-25 22:33:00,
2013-01-25 14:38:00,62.6,54.9,29.69,East,90,3.1,7.6,76,0.00,,,0.11,WUHU216HW,2013-01-25 22:38:00,
2013-01-25 14:43:00,62.6,54.9,29.70,ENE,68,4.5,7.6,76,0.00,,,0.11,WUHU216HW,2013-01-25 22:43:00,
2013-01-25 14:48:00,62.6,54.9,29.70,ENE,68,4.7,6.7,76,0.00,,,0.11,WUHU216HW,2013-01-25 22:48:00,
2013-01-25 14:53:00,62.5,54.7,29.70,ESE,113,3.1,6.7,76,0.00,,,0.11,WUHU216HW,2013-01-25 22:53:00,
2013-01-25 14:58:00,62.5,54.7,29.69,East,90,2.0,5.6,76,0.00,,,0.11,WUHU216HW,2013-01-25 22:58:00,
2013-01-25 15:03:00,62.5,55.1,29.69,ENE,68,1.8,6.3,77,0.00,,,0.11,WUHU216HW,2013-01-25 23:03:00,
2013-01-25 15:08:00,62.3,54.9,29.68,ESE,113,1.8,6.3,77,0.00,,,0.11,WUHU216HW,2013-01-25 23:08:00,
2013-01-25 15:13:00,62.3,55.3,29.68,NE,45,6.3,6.3,78,0.01,,,0.12,WUHU216HW,2013-01-25 23:13:00,
2013-01-25 15:18:00,62.3,55.3,29.68,East,90,2.0,7.8,78,0.01,,,0.12,WUHU216HW,2013-01-25 23:18:00,
2013-01-25 15:23:00,61.9,55.0,29.69,East,90,2.7,7.8,78,0.01,,,0.12,WUHU216HW,2013-01-25 23:23:00,
2013-01-25 15:28:00,61.9,55.4,29.69,SE,135,1.1,5.8,79,0.01,,,0.12,WUHU216HW,2013-01-25 23:28:00,
2013-01-25 15:33:00,61.7,55.5,29.69,East,90,2.5,3.6,80,0.01,,,0.12,WUHU216HW,2013-01-25 23:33:00,
2013-01-25 15:38:00,61.6,55.0,29.69,SE,135,2.2,2.9,79,0.01,,,0.12,WUHU216HW,2013-01-25 23:38:00,
2013-01-25 15:43:00,61.4,55.2,29.68,ESE,113,2.5,2.5,80,0.01,,,0.12,WUHU216HW,2013-01-25 23:43:00,
2013-01-25 15:48:00,61.2,55.4,29.68,SE,135,1.1,2.5,81,0.01,,,0.12,WUHU216HW,2013-01-25 23:48:00,
2013-01-25 15:53:00,61.2,55.4,29.68,ESE,113,2.9,4.3,81,0.01,,,0.12,WUHU216HW,2013-01-25 23:53:00,
2013-01-25 15:58:00,61.0,55.2,29.68,ESE,113,1.1,4.3,81,0.01,,,0.12,WUHU216HW,2013-01-25 23:58:00,
2013-01-25 16:03:00,60.8,55.4,29.67,SE,135,2.2,3.1,82,0.01,,,0.12,WUHU216HW,2013-01-26 00:03:00,
2013-01-25 16:08:00,60.8,55.1,29.67,SSE,158,0.0,2.9,81,0.01,,,0.12,WUHU216HW,2013-01-26 00:08:00,
2013-01-25 16:13:00,60.7,55.2,29.66,SE,135,0.0,2.5,82,0.00,,,0.12,WUHU216HW,2013-01-26 00:13:00,
2013-01-25 16:18:00,60.5,55.0,29.66,South,180,1.1,1.8,82,0.01,,,0.13,WUHU216HW,2013-01-26 00:18:00,
2013-01-25 16:23:00,60.5,55.0,29.66,SSW,203,1.1,1.8,82,0.01,,,0.13,WUHU216HW,2013-01-26 00:23:00,
2013-01-25 16:28:00,60.5,55.4,29.66,SSW,203,1.1,1.3,83,0.01,,,0.13,WUHU216HW,2013-01-26 00:28:00,
2013-01-25 16:33:00,60.3,55.2,29.66,SE,135,0.0,1.3,83,0.01,,,0.13,WUHU216HW,2013-01-26 00:33:00,
2013-01-25 16:38:00,60.3,55.2,29.66,South,180,0.2,1.3,83,0.01,,,0.13,WUHU216HW,2013-01-26 00:38:00,
2013-01-25 16:43:00,60.3,55.2,29.67,SSW,203,0.0,1.3,83,0.01,,,0.13,WUHU216HW,2013-01-26 00:43:00,
2013-01-25 16:48:00,60.3,55.2,29.67,SSW,203,1.1,3.1,83,0.01,,,0.13,WUHU216HW,2013-01-26 00:48:00,
2013-01-25 16:53:00,60.3,55.2,29.68,SW,225,1.8,3.1,83,0.01,,,0.13,WUHU216HW,2013-01-26 00:53:00,
2013-01-25 16:58:00,60.1,55.6,29.68,WSW,248,2.2,3.1,85,0.01,,,0.13,WUHU216HW,2013-01-26 00:58:00,
2013-01-25 17:03:00,59.8,55.6,29.68,WSW,248,1.6,3.1,86,0.01,,,0.13,WUHU216HW,2013-01-26 01:03:00,
2013-01-25 17:08:00,59.2,55.4,29.68,West,270,2.7,2.7,87,0.01,,,0.13,WUHU216HW,2013-01-26 01:08:00,
2013-01-25 17:13:00,58.7,54.8,29.68,West,270,0.9,3.4,87,0.00,,,0.13,WUHU216HW,2013-01-26 01:13:00,
2013-01-25 17:18:00,58.5,55.0,29.68,North,0,0.0,3.4,88,0.00,,,0.13,WUHU216HW,2013-01-26 01:18:00,
2013-01-25 17:23:00,58.3,55.4,29.68,WSW,248,1.8,2.2,90,0.00,,,0.13,WUHU216HW,2013-01-26 01:23:00,
2013-01-25 17:28:00,58.1,54.6,29.68,NW,315,2.9,2.9,88,0.00,,,0.13,WUHU216HW,2013-01-26 01:28:00,
2013-01-25 17:33:00,58.0,54.5,29.68,NW,315,0.9,2.9,88,0.00,,,0.13,WUHU216HW,2013-01-26 01:33:00,
2013-01-25 17:38:00,58.0,54.5,29.68,WNW,293,1.1,2.9,88,0.00,,,0.13,WUHU216HW,2013-01-26 01:38:00,
2013-01-25 17:43:00,57.8,54.3,29.68,West,270,0.7,1.8,88,0.00,,,0.13,WUHU216HW,2013-01-26 01:43:00,
2013-01-25 17:48:00,57.8,54.5,29.68,WNW,293,1.1,1.8,89,0.00,,,0.13,WUHU216HW,2013-01-26 01:48:00,
2013-01-25 17:53:00,57.6,54.4,29.68,NNW,338,1.1,2.2,89,0.00,,,0.13,WUHU216HW,2013-01-26 01:53:00,
2013-01-25 17:58:00,57.6,54.4,29.68,North,0,0.7,2.2,89,0.00,,,0.13,WUHU216HW,2013-01-26 01:58:00,
2013-01-25 18:03:00,57.6,54.4,29.69,NW,315,0.0,1.8,89,0.00,,,0.13,WUHU216HW,2013-01-26 02:03:00,
2013-01-25 18:08:00,57.6,54.4,29.69,NNW,338,0.0,1.8,89,0.00,,,0.13,WUHU216HW,2013-01-26 02:08:00,
2013-01-25 18:13:00,57.6,54.4,29.69,NW,315,0.0,1.3,89,0.00,,,0.13,WUHU216HW,2013-01-26 02:13:00,
2013-01-25 18:18:00,57.6,54.1,29.68,NNW,338,0.7,1.3,88,0.00,,,0.13,WUHU216HW,2013-01-26 02:18:00,
2013-01-25 18:23:00,57.6,54.1,29.68,North,0,0.2,1.3,88,0.00,,,0.13,WUHU216HW,2013-01-26 02:23:00,
2013-01-25 18:28:00,57.6,54.1,29.69,North,0,0.0,1.1,88,0.00,,,0.13,WUHU216HW,2013-01-26 02:28:00,
2013-01-25 18:33:00,57.6,54.1,29.68,North,0,0.0,0.2,88,0.00,,,0.13,WUHU216HW,2013-01-26 02:33:00,
2013-01-25 18:38:00,57.6,54.1,29.68,WNW,293,0.0,0.0,88,0.00,,,0.13,WUHU216HW,2013-01-26 02:38:00,
2013-01-25 18:43:00,57.6,54.1,29.69,SSW,203,0.0,1.1,88,0.00,,,0.13,WUHU216HW,2013-01-26 02:43:00,
2013-01-25 18:48:00,57.6,54.1,29.68,SSW,203,0.0,1.1,88,0.00,,,0.13,WUHU216HW,2013-01-26 02:48:00,
2013-01-25 18:53:00,57.6,54.1,29.68,SSW,203,0.0,0.0,88,0.00,,,0.13,WUHU216HW,2013-01-26 02:53:00,
2013-01-25 18:58:00,57.6,54.1,29.68,SSW,203,0.0,0.0,88,0.00,,,0.13,WUHU216HW,2013-01-26 02:58:00,
2013-01-25 19:03:00,57.8,54.3,29.68,SSW,203,0.0,0.0,88,0.00,,,0.13,WUHU216HW,2013-01-26 03:03:00,
2013-01-25 19:08:00,57.6,54.1,29.68,SSE,158,0.0,0.0,88,0.00,,,0.13,WUHU216HW,2013-01-26 03:08:00,
2013-01-25 19:13:00,57.6,54.4,29.68,SSE,158,0.0,0.0,89,0.00,,,0.13,WUHU216HW,2013-01-26 03:13:00,
2013-01-25 19:18:00,57.8,54.5,29.68,SSE,158,0.0,0.0,89,0.00,,,0.13,WUHU216HW,2013-01-26 03:18:00,
2013-01-25 19:23:00,57.8,54.5,29.68,SSE,158,0.0,0.0,89,0.00,,,0.13,WUHU216HW,2013-01-26 03:23:00,
2013-01-25 19:28:00,57.8,54.5,29.68,SSE,158,0.0,0.0,89,0.00,,,0.13,WUHU216HW,2013-01-26 03:28:00,
2013-01-25 19:33:00,57.8,54.5,29.68,SE,135,0.0,0.0,89,0.00,,,0.13,WUHU216HW,2013-01-26 03:33:00,
2013-01-25 19:38:00,57.8,54.5,29.68,SE,135,0.0,0.0,89,0.00,,,0.13,WUHU216HW,2013-01-26 03:38:00,
2013-01-25 19:43:00,57.8,54.5,29.68,SE,135,0.0,0.0,89,0.00,,,0.13,WUHU216HW,2013-01-26 03:43:00,
2013-01-25 19:48:00,57.8,54.5,29.68,East,90,0.0,0.0,89,0.00,,,0.13,WUHU216HW,2013-01-26 03:48:00,
2013-01-25 19:53:00,57.8,54.5,29.68,NW,315,1.1,2.2,89,0.01,,,0.14,WUHU216HW,2013-01-26 03:53:00,
2013-01-25 19:58:00,58.0,54.7,29.68,NW,315,1.3,2.2,89,0.02,,,0.15,WUHU216HW,2013-01-26 03:58:00,
2013-01-25 20:03:00,57.8,54.5,29.67,NW,315,0.0,1.8,89,0.02,,,0.15,WUHU216HW,2013-01-26 04:03:00,
2013-01-25 20:08:00,58.0,54.7,29.67,NW,315,0.7,1.3,89,0.03,,,0.16,WUHU216HW,2013-01-26 04:08:00,
2013-01-25 20:13:00,57.8,54.5,29.67,North,0,0.0,1.1,89,0.03,,,0.16,WUHU216HW,2013-01-26 04:13:00,
2013-01-25 20:18:00,57.8,54.5,29.67,NNW,338,0.0,0.7,89,0.03,,,0.16,WUHU216HW,2013-01-26 04:18:00,
2013-01-25 20:23:00,57.8,54.5,29.67,North,0,0.0,0.2,89,0.03,,,0.16,WUHU216HW,2013-01-26 04:23:00,
2013-01-25 20:28:00,57.8,54.5,29.67,NNW,338,0.7,1.3,89,0.04,,,0.17,WUHU216HW,2013-01-26 04:28:00,
2013-01-25 20:33:00,57.8,54.5,29.67,NNW,338,0.0,1.3,89,0.04,,,0.17,WUHU216HW,2013-01-26 04:33:00,
2013-01-25 20:38:00,57.6,54.4,29.67,WNW,293,0.0,1.3,89,0.04,,,0.17,WUHU216HW,2013-01-26 04:38:00,
2013-01-25 20:43:00,57.6,54.4,29.66,WNW,293,0.0,1.3,89,0.05,,,0.18,WUHU216HW,2013-01-26 04:43:00,
2013-01-25 20:48:00,57.6,54.4,29.66,NNW,338,0.9,1.3,89,0.04,,,0.18,WUHU216HW,2013-01-26 04:48:00,
2013-01-25 20:53:00,57.6,54.4,29.66,NW,315,0.0,1.3,89,0.03,,,0.18,WUHU216HW,2013-01-26 04:53:00,
2013-01-25 20:58:00,57.6,54.4,29.66,NW,315,0.0,0.9,89,0.03,,,0.18,WUHU216HW,2013-01-26 04:58:00,
2013-01-25 21:00:00,57.6,54.4,29.66,NW,315,0.0,0.0,89,0.03,,,0.18,WUHU216HW,2013-01-26 05:00:00,
2013-01-25 21:01:00,57.6,54.4,29.66,NW,315,0.0,0.0,89,0.03,,,0.18,WUHU216HW,2013-01-26 05:01:00,
2013-01-25 21:06:00,57.4,54.2,29.66,NNE,23,0.4,0.7,89,0.02,,,0.18,WUHU216HW,2013-01-26 05:06:00,
2013-01-25 21:11:00,57.4,54.2,29.66,WSW,248,1.3,1.3,89,0.02,,,0.18,WUHU216HW,2013-01-26 05:11:00,
2013-01-25 21:16:00,57.4,54.2,29.66,SSE,158,0.0,1.3,89,0.02,,,0.18,WUHU216HW,2013-01-26 05:16:00,
2013-01-25 21:21:00,57.4,54.5,29.67,SE,135,0.0,1.3,90,0.01,,,0.18,WUHU216HW,2013-01-26 05:21:00,
2013-01-25 21:26:00,57.6,54.7,29.67,ESE,113,1.8,2.0,90,0.01,,,0.18,WUHU216HW,2013-01-26 05:26:00,
2013-01-25 21:31:00,57.4,54.5,29.67,ESE,113,0.4,2.0,90,0.01,,,0.18,WUHU216HW,2013-01-26 05:31:00,
2013-01-25 21:36:00,57.6,55.3,29.67,ENE,68,0.7,1.8,92,0.01,,,0.18,WUHU216HW,2013-01-26 05:36:00,
2013-01-25 21:41:00,57.4,55.1,29.66,ESE,113,0.7,1.8,92,0.00,,,0.18,WUHU216HW,2013-01-26 05:41:00,
2013-01-25 21:46:00,57.4,55.1,29.67,East,90,0.9,1.1,92,0.00,,,0.18,WUHU216HW,2013-01-26 05:46:00,
2013-01-25 21:51:00,57.4,55.1,29.67,East,90,0.0,1.1,92,0.00,,,0.18,WUHU216HW,2013-01-26 05:51:00,
2013-01-25 21:56:00,57.4,55.1,29.67,ENE,68,0.4,1.1,92,0.00,,,0.18,WUHU216HW,2013-01-26 05:56:00,
2013-01-25 22:01:00,57.4,55.1,29.67,ENE,68,0.2,0.7,92,0.00,,,0.18,WUHU216HW,2013-01-26 06:01:00,
2013-01-25 22:06:00,57.2,54.6,29.67,East,90,0.0,0.4,91,0.00,,,0.18,WUHU216HW,2013-01-26 06:06:00,
2013-01-25 22:11:00,57.4,54.8,29.67,East,90,0.0,0.2,91,0.00,,,0.18,WUHU216HW,2013-01-26 06:11:00,
2013-01-25 22:16:00,57.2,54.6,29.67,East,90,0.0,0.0,91,0.00,,,0.18,WUHU216HW,2013-01-26 06:16:00,
2013-01-25 22:21:00,57.2,54.6,29.67,ENE,68,0.4,0.4,91,0.01,,,0.19,WUHU216HW,2013-01-26 06:21:00,
2013-01-25 22:26:00,57.4,55.1,29.67,NNE,23,0.0,0.7,92,0.01,,,0.19,WUHU216HW,2013-01-26 06:26:00,
2013-01-25 22:31:00,57.4,54.8,29.67,NNE,23,0.0,0.7,91,0.01,,,0.19,WUHU216HW,2013-01-26 06:31:00,
2013-01-25 22:36:00,57.4,54.8,29.67,ESE,113,0.0,0.9,91,0.01,,,0.19,WUHU216HW,2013-01-26 06:36:00,
2013-01-25 22:41:00,57.4,55.1,29.67,ENE,68,0.9,1.1,92,0.01,,,0.19,WUHU216HW,2013-01-26 06:41:00,
2013-01-25 22:46:00,57.4,55.1,29.67,ENE,68,0.0,1.6,92,0.01,,,0.19,WUHU216HW,2013-01-26 06:46:00,
2013-01-25 22:51:00,57.6,55.0,29.67,NE,45,0.0,1.6,91,0.01,,,0.19,WUHU216HW,2013-01-26 06:51:00,
2013-01-25 22:56:00,57.4,54.8,29.67,North,0,0.0,0.9,91,0.01,,,0.19,WUHU216HW,2013-01-26 06:56:00,
2013-01-25 23:01:00,57.4,54.8,29.67,NNW,338,0.0,0.9,91,0.01,,,0.19,WUHU216HW,2013-01-26 07:01:00,
2013-01-25 23:06:00,57.4,54.8,29.67,North,0,0.0,0.9,91,0.01,,,0.19,WUHU216HW,2013-01-26 07:06:00,
2013-01-25 23:11:00,57.4,54.8,29.66,NNW,338,0.0,1.3,91,0.01,,,0.19,WUHU216HW,2013-01-26 07:11:00,
2013-01-25 23:16:00,57.4,54.8,29.66,NNW,338,0.4,1.3,91,0.01,,,0.19,WUHU216HW,2013-01-26 07:16:00,
2013-01-25 23:21:00,57.4,54.8,29.66,NNW,338,0.0,0.4,91,0.00,,,0.19,WUHU216HW,2013-01-26 07:21:00,
2013-01-25 23:26:00,57.4,54.8,29.66,WNW,293,0.0,0.4,91,0.00,,,0.19,WUHU216HW,2013-01-26 07:26:00,
2013-01-25 23:31:00,57.4,54.8,29.66,WNW,293,0.0,0.0,91,0.00,,,0.19,WUHU216HW,2013-01-26 07:31:00,
2013-01-25 23:36:00,57.4,54.8,29.66,WNW,293,0.0,0.0,91,0.00,,,0.19,WUHU216HW,2013-01-26 07:36:00,
2013-01-25 23:41:00,57.2,54.6,29.66,ESE,113,0.0,1.1,91,0.00,,,0.19,WUHU216HW,2013-01-26 07:41:00,
2013-01-25 23:46:00,57.2,54.6,29.65,WSW,248,0.0,1.1,91,0.00,,,0.19,WUHU216HW,2013-01-26 07:46:00,
2013-01-25 23:51:00,57.2,54.6,29.66,WSW,248,0.0,0.4,91,0.00,,,0.19,WUHU216HW,2013-01-26 07:51:00,
2013-01-25 23:56:00,57.2,54.6,29.66,WSW,248,1.1,1.1,91,0.00,,,0.19,WUHU216HW,2013-01-26 07:56:00,